Fallon NAS, NV

1:48 PM PDT on March 31, 2015 (GMT -0700)
Reno-Tahoe International | | Change Station
CLOSE
Current Station
Airport
Location: Reno,
Elevation: 4400 ft
Nearby Weather Stations
Active Advisory: Lake Wind Advisory Active Notice: Record Report

Elev 4400 ft 39.51 °N, 119.77 °W | Updated 53 minutes ago

Clear
Clear
67 °F
Feels Like 67 °F
N
16
Wind Variable Wind from WSW
Gusts 26 mph

Today
High -- | Low -- °F
--% Chance of Precip.
Yesterday
High -- | Low -- °F
Precip. -- in
6:40 AM 7:17 PM
Waxing Gibbous, 88% visible
Pressure 29.89 in
Visibility 10.0 miles
Clouds Few 8000 ft
Dew Point 4 °F
Humidity 8%
Rainfall 0.00 in
Snow Depth Not available.
UV 9 out of 12
Pollen 10.20 out of 12
Air Quality Not available.
Flu Activity Not available.
METAR KRNO 311955Z 25014G23KT 10SM FEW080 19/M16 A3001 RMK AO2 PK WND 30035/1917 WSHFT 1848 SLP121 DU ALQDS T01941156 $

More Conditions Fewer Conditions

Pressure 29.89 in
Visibility 10.0 miles
Clouds Few 8000 ft
Dew Point 4 °F
Humidity 8%
Rainfall 0.00 in
Snow Depth Not available.
UV 9 out of 12
Pollen 10.20 out of 12
Air Quality Not available.
Flu Activity Not available.
METAR KRNO 311955Z 25014G23KT 10SM FEW080 19/M16 A3001 RMK AO2 PK WND 30035/1917 WSHFT 1848 SLP121 DU ALQDS T01941156 $

More Conditions Fewer Conditions

10-Day Weather Forecast

Almanac

Astronomy

Mar. 31, 2015 Rise Set
Actual Time
Civil Twilight
Nautical Twilight
Astronomical Twilight
Moon
Length of Visible Light
Length of Day
Tomorrow will be .
, % of the Moon is Illuminated

Today's Extremes

State Highs State Lows

Community

WunderPhotos

Upload Photos

1,809,826 photos uploaded!

WunderBlogs® & News

Nearby

Air Quality

  Air Quality AQ Index Pollutant
Not available.

Snow Depth

Station Depth Elevation

Earthquake Activity

City Distance Mag. Time & Date
Minimum magnitude displayed is 2.5.

Coastal Water Temperatures

Place Temperature

Stations

Nearby Weather Stations

Station Location Temp. Windchill Dew Point Humidity Wind Precip. Elev Updated Type
                   
Lake Wind Advisory
Statement as of 6:47 AM PDT on March 31, 2015

... Lake Wind Advisory remains in effect from 11 am this morning
to 11 PM PDT this evening for Pyramid Lake...

A lake Wind Advisory for Pyramid Lake remains in effect from
11 am this morning to 11 PM PDT this evening.

* Winds: west to northwest 15 to 25 mph with gusts to 35 mph.

* Wave heights: 2 to 4 feet with the highest waves from
mid-lake to east and southeast shores.

* Small boats will be prone to capsizing and should remain off
lake waters until conditions improve.

Precautionary/preparedness actions...

Check our website at weather.Gov/Reno or listen to NOAA Weather
Radio for updates on this situation.